sensor_id;sensor_type;location;lat;lon;timestamp;P1;durP1;ratioP1;P2;durP2;ratioP2
32611;SDS011;19030;49.478;8.986;2022-10-23T00:00:38;9.73;;;2.42;;
32611;SDS011;19030;49.478;8.986;2022-10-23T00:02:39;8.18;;;2.72;;
32611;SDS011;19030;49.478;8.986;2022-10-23T00:04:39;9.75;;;3.92;;
32611;SDS011;19030;49.478;8.986;2022-10-23T00:06:40;6.38;;;3.72;;
32611;SDS011;19030;49.478;8.986;2022-10-23T00:08:42;9.93;;;2.80;;
32611;SDS011;19030;49.478;8.986;2022-10-23T00:10:44;5.93;;;2.60;;
32611;SDS011;19030;49.478;8.986;2022-10-23T00:12:45;9.57;;;2.45;;
32611;SDS011;19030;49.478;8.986;2022-10-23T00:14:46;4.55;;;2.40;;
32611;SDS011;19030;49.478;8.986;2022-10-23T00:16:47;11.48;;;2.88;;
32611;SDS011;19030;49.478;8.986;2022-10-23T00:18:47;8.10;;;2.65;;
32611;SDS011;19030;49.478;8.986;2022-10-23T00:20:48;9.63;;;3.15;;
32611;SDS011;19030;49.478;8.986;2022-10-23T00:22:49;8.85;;;2.53;;
32611;SDS011;19030;49.478;8.986;2022-10-23T00:24:49;8.85;;;2.63;;
32611;SDS011;19030;49.478;8.986;2022-10-23T00:26:50;5.68;;;2.50;;
32611;SDS011;19030;49.478;8.986;2022-10-23T00:28:51;10.10;;;2.80;;
32611;SDS011;19030;49.478;8.986;2022-10-23T00:30:53;4.18;;;2.50;;
32611;SDS011;19030;49.478;8.986;2022-10-23T00:32:53;9.55;;;2.60;;
32611;SDS011;19030;49.478;8.986;2022-10-23T00:34:54;5.28;;;2.40;;
32611;SDS011;19030;49.478;8.986;2022-10-23T00:36:54;6.53;;;2.40;;
32611;SDS011;19030;49.478;8.986;2022-10-23T00:38:55;3.78;;;2.50;;
32611;SDS011;19030;49.478;8.986;2022-10-23T00:40:56;5.05;;;2.50;;
32611;SDS011;19030;49.478;8.986;2022-10-23T00:42:56;11.50;;;2.55;;
32611;SDS011;19030;49.478;8.986;2022-10-23T00:47:18;4.72;;;2.42;;
32611;SDS011;19030;49.478;8.986;2022-10-23T00:49:19;4.50;;;2.25;;
32611;SDS011;19030;49.478;8.986;2022-10-23T00:51:22;9.88;;;2.53;;
32611;SDS011;19030;49.478;8.986;2022-10-23T00:53:24;13.80;;;2.33;;
32611;SDS011;19030;49.478;8.986;2022-10-23T00:55:25;5.47;;;2.63;;
32611;SDS011;19030;49.478;8.986;2022-10-23T00:57:26;10.52;;;2.70;;
32611;SDS011;19030;49.478;8.986;2022-10-23T00:59:27;6.88;;;2.40;;
32611;SDS011;19030;49.478;8.986;2022-10-23T01:01:29;6.55;;;2.45;;
32611;SDS011;19030;49.478;8.986;2022-10-23T01:03:29;5.07;;;2.38;;
32611;SDS011;19030;49.478;8.986;2022-10-23T01:05:32;28.45;;;2.85;;
32611;SDS011;19030;49.478;8.986;2022-10-23T01:07:55;5.97;;;2.70;;
32611;SDS011;19030;49.478;8.986;2022-10-23T01:12:23;6.53;;;2.63;;
32611;SDS011;19030;49.478;8.986;2022-10-23T01:14:36;10.15;;;3.42;;
32611;SDS011;19030;49.478;8.986;2022-10-23T01:16:41;6.38;;;2.35;;
32611;SDS011;19030;49.478;8.986;2022-10-23T01:21:53;8.35;;;2.53;;
32611;SDS011;19030;49.478;8.986;2022-10-23T01:24:11;8.68;;;2.40;;
32611;SDS011;19030;49.478;8.986;2022-10-23T01:26:26;10.43;;;2.30;;
32611;SDS011;19030;49.478;8.986;2022-10-23T01:28:49;4.95;;;2.30;;
32611;SDS011;19030;49.478;8.986;2022-10-23T01:30:58;9.65;;;2.33;;
32611;SDS011;19030;49.478;8.986;2022-10-23T01:33:14;6.03;;;2.58;;
32611;SDS011;19030;49.478;8.986;2022-10-23T01:35:26;4.33;;;2.53;;
32611;SDS011;19030;49.478;8.986;2022-10-23T01:37:37;6.80;;;2.47;;
32611;SDS011;19030;49.478;8.986;2022-10-23T01:39:47;13.52;;;2.72;;
32611;SDS011;19030;49.478;8.986;2022-10-23T01:41:53;11.32;;;2.58;;
32611;SDS011;19030;49.478;8.986;2022-10-23T01:46:15;4.72;;;2.42;;
32611;SDS011;19030;49.478;8.986;2022-10-23T01:48:18;6.78;;;2.70;;
32611;SDS011;19030;49.478;8.986;2022-10-23T01:52:31;7.53;;;2.60;;
32611;SDS011;19030;49.478;8.986;2022-10-23T01:54:33;9.27;;;3.03;;
32611;SDS011;19030;49.478;8.986;2022-10-23T01:56:38;6.68;;;2.60;;
32611;SDS011;19030;49.478;8.986;2022-10-23T01:58:44;3.50;;;2.20;;
32611;SDS011;19030;49.478;8.986;2022-10-23T02:00:47;14.77;;;3.85;;
32611;SDS011;19030;49.478;8.986;2022-10-23T02:02:52;5.53;;;2.55;;
32611;SDS011;19030;49.478;8.986;2022-10-23T02:05:07;4.85;;;2.33;;
32611;SDS011;19030;49.478;8.986;2022-10-23T02:07:16;4.00;;;2.85;;
32611;SDS011;19030;49.478;8.986;2022-10-23T02:09:16;4.90;;;2.17;;
32611;SDS011;19030;49.478;8.986;2022-10-23T02:11:18;5.38;;;1.90;;
32611;SDS011;19030;49.478;8.986;2022-10-23T02:13:32;7.43;;;2.15;;
32611;SDS011;19030;49.478;8.986;2022-10-23T02:15:37;3.65;;;1.90;;
32611;SDS011;19030;49.478;8.986;2022-10-23T02:17:50;5.28;;;2.00;;
32611;SDS011;19030;49.478;8.986;2022-10-23T02:20:09;9.30;;;2.47;;
32611;SDS011;19030;49.478;8.986;2022-10-23T02:22:32;5.55;;;2.08;;
32611;SDS011;19030;49.478;8.986;2022-10-23T02:26:48;11.27;;;2.30;;
32611;SDS011;19030;49.478;8.986;2022-10-23T02:28:53;6.85;;;2.00;;
32611;SDS011;19030;49.478;8.986;2022-10-23T02:31:04;6.80;;;2.00;;
32611;SDS011;19030;49.478;8.986;2022-10-23T02:33:08;6.72;;;2.10;;
32611;SDS011;19030;49.478;8.986;2022-10-23T02:35:11;6.00;;;2.25;;
32611;SDS011;19030;49.478;8.986;2022-10-23T02:37:12;4.38;;;1.98;;
32611;SDS011;19030;49.478;8.986;2022-10-23T02:39:13;5.75;;;1.90;;
32611;SDS011;19030;49.478;8.986;2022-10-23T02:43:56;4.70;;;2.15;;
32611;SDS011;19030;49.478;8.986;2022-10-23T02:46:44;5.72;;;2.17;;
32611;SDS011;19030;49.478;8.986;2022-10-23T02:48:54;6.85;;;2.15;;
32611;SDS011;19030;49.478;8.986;2022-10-23T02:55:53;6.05;;;2.20;;
32611;SDS011;19030;49.478;8.986;2022-10-23T03:00:34;8.95;;;2.55;;
32611;SDS011;19030;49.478;8.986;2022-10-23T03:02:39;6.68;;;2.30;;
32611;SDS011;19030;49.478;8.986;2022-10-23T03:04:55;6.45;;;2.40;;
32611;SDS011;19030;49.478;8.986;2022-10-23T03:06:56;3.72;;;2.22;;
32611;SDS011;19030;49.478;8.986;2022-10-23T03:08:58;8.35;;;2.83;;
32611;SDS011;19030;49.478;8.986;2022-10-23T03:11:03;3.25;;;2.05;;
32611;SDS011;19030;49.478;8.986;2022-10-23T03:13:03;5.68;;;2.50;;
32611;SDS011;19030;49.478;8.986;2022-10-23T03:15:12;6.63;;;2.63;;
32611;SDS011;19030;49.478;8.986;2022-10-23T03:17:13;6.78;;;2.80;;
32611;SDS011;19030;49.478;8.986;2022-10-23T03:19:14;5.82;;;2.20;;
32611;SDS011;19030;49.478;8.986;2022-10-23T03:21:14;3.22;;;2.25;;
32611;SDS011;19030;49.478;8.986;2022-10-23T03:23:15;5.55;;;2.35;;
32611;SDS011;19030;49.478;8.986;2022-10-23T03:25:16;6.90;;;2.53;;
32611;SDS011;19030;49.478;8.986;2022-10-23T03:27:18;6.30;;;2.85;;
32611;SDS011;19030;49.478;8.986;2022-10-23T03:29:19;8.98;;;2.40;;
32611;SDS011;19030;49.478;8.986;2022-10-23T03:31:20;12.65;;;2.63;;
32611;SDS011;19030;49.478;8.986;2022-10-23T03:33:23;3.85;;;2.15;;
32611;SDS011;19030;49.478;8.986;2022-10-23T03:35:24;3.20;;;2.15;;
32611;SDS011;19030;49.478;8.986;2022-10-23T03:37:24;6.45;;;2.45;;
32611;SDS011;19030;49.478;8.986;2022-10-23T03:39:25;3.85;;;2.33;;
32611;SDS011;19030;49.478;8.986;2022-10-23T03:41:26;5.57;;;2.28;;
32611;SDS011;19030;49.478;8.986;2022-10-23T03:43:27;2.97;;;2.05;;
32611;SDS011;19030;49.478;8.986;2022-10-23T03:45:28;6.55;;;2.03;;
32611;SDS011;19030;49.478;8.986;2022-10-23T03:47:29;3.40;;;2.03;;
32611;SDS011;19030;49.478;8.986;2022-10-23T03:49:31;4.95;;;2.03;;
32611;SDS011;19030;49.478;8.986;2022-10-23T03:51:37;6.45;;;2.17;;
32611;SDS011;19030;49.478;8.986;2022-10-23T03:53:40;3.25;;;1.90;;
32611;SDS011;19030;49.478;8.986;2022-10-23T03:55:42;3.15;;;2.00;;
32611;SDS011;19030;49.478;8.986;2022-10-23T03:57:43;10.77;;;2.30;;
32611;SDS011;19030;49.478;8.986;2022-10-23T03:59:44;5.78;;;2.17;;
32611;SDS011;19030;49.478;8.986;2022-10-23T04:01:45;7.35;;;2.10;;
32611;SDS011;19030;49.478;8.986;2022-10-23T04:03:45;6.20;;;2.40;;
32611;SDS011;19030;49.478;8.986;2022-10-23T04:05:48;4.63;;;2.15;;
32611;SDS011;19030;49.478;8.986;2022-10-23T04:07:49;3.75;;;2.20;;
32611;SDS011;19030;49.478;8.986;2022-10-23T04:09:49;5.78;;;2.65;;
32611;SDS011;19030;49.478;8.986;2022-10-23T04:11:50;6.28;;;2.42;;
32611;SDS011;19030;49.478;8.986;2022-10-23T04:13:51;6.78;;;2.45;;
32611;SDS011;19030;49.478;8.986;2022-10-23T04:15:52;4.93;;;2.70;;
32611;SDS011;19030;49.478;8.986;2022-10-23T04:17:52;6.30;;;2.42;;
32611;SDS011;19030;49.478;8.986;2022-10-23T04:19:53;7.22;;;2.45;;
32611;SDS011;19030;49.478;8.986;2022-10-23T04:21:54;6.07;;;2.55;;
32611;SDS011;19030;49.478;8.986;2022-10-23T04:23:56;5.90;;;2.28;;
32611;SDS011;19030;49.478;8.986;2022-10-23T04:25:56;6.10;;;2.85;;
32611;SDS011;19030;49.478;8.986;2022-10-23T04:27:58;7.10;;;2.40;;
32611;SDS011;19030;49.478;8.986;2022-10-23T04:29:59;10.77;;;2.50;;
32611;SDS011;19030;49.478;8.986;2022-10-23T04:32:00;9.43;;;2.70;;
32611;SDS011;19030;49.478;8.986;2022-10-23T04:34:01;9.43;;;2.55;;
32611;SDS011;19030;49.478;8.986;2022-10-23T04:36:04;7.53;;;2.60;;
32611;SDS011;19030;49.478;8.986;2022-10-23T04:38:06;8.10;;;2.63;;
32611;SDS011;19030;49.478;8.986;2022-10-23T04:40:07;5.50;;;2.70;;
32611;SDS011;19030;49.478;8.986;2022-10-23T04:42:09;5.32;;;2.22;;
32611;SDS011;19030;49.478;8.986;2022-10-23T04:44:10;11.30;;;2.58;;
32611;SDS011;19030;49.478;8.986;2022-10-23T04:46:12;4.30;;;2.60;;
32611;SDS011;19030;49.478;8.986;2022-10-23T04:48:12;6.03;;;2.50;;
32611;SDS011;19030;49.478;8.986;2022-10-23T04:50:42;8.27;;;2.40;;
32611;SDS011;19030;49.478;8.986;2022-10-23T04:53:00;12.57;;;2.60;;
32611;SDS011;19030;49.478;8.986;2022-10-23T04:55:26;9.65;;;2.55;;
32611;SDS011;19030;49.478;8.986;2022-10-23T04:57:44;10.13;;;2.60;;
32611;SDS011;19030;49.478;8.986;2022-10-23T04:59:45;6.38;;;2.30;;
32611;SDS011;19030;49.478;8.986;2022-10-23T05:01:46;4.47;;;2.35;;
32611;SDS011;19030;49.478;8.986;2022-10-23T05:03:47;7.93;;;2.53;;
32611;SDS011;19030;49.478;8.986;2022-10-23T05:05:51;6.03;;;2.40;;
32611;SDS011;19030;49.478;8.986;2022-10-23T05:08:13;5.57;;;2.60;;
32611;SDS011;19030;49.478;8.986;2022-10-23T05:10:40;8.18;;;2.75;;
32611;SDS011;19030;49.478;8.986;2022-10-23T05:12:46;3.60;;;2.10;;
32611;SDS011;19030;49.478;8.986;2022-10-23T05:14:46;4.47;;;2.20;;
32611;SDS011;19030;49.478;8.986;2022-10-23T05:16:49;7.25;;;2.38;;
32611;SDS011;19030;49.478;8.986;2022-10-23T05:18:54;5.80;;;2.60;;
32611;SDS011;19030;49.478;8.986;2022-10-23T05:21:00;8.45;;;2.40;;
32611;SDS011;19030;49.478;8.986;2022-10-23T05:23:05;7.75;;;2.50;;
32611;SDS011;19030;49.478;8.986;2022-10-23T05:25:09;6.63;;;2.30;;
32611;SDS011;19030;49.478;8.986;2022-10-23T05:27:12;7.10;;;4.35;;
32611;SDS011;19030;49.478;8.986;2022-10-23T05:29:14;6.03;;;2.60;;
32611;SDS011;19030;49.478;8.986;2022-10-23T05:31:15;5.60;;;2.47;;
32611;SDS011;19030;49.478;8.986;2022-10-23T05:33:22;5.47;;;2.25;;
32611;SDS011;19030;49.478;8.986;2022-10-23T05:35:23;6.10;;;2.40;;
32611;SDS011;19030;49.478;8.986;2022-10-23T05:37:24;5.55;;;2.40;;
32611;SDS011;19030;49.478;8.986;2022-10-23T05:39:35;7.88;;;2.55;;
32611;SDS011;19030;49.478;8.986;2022-10-23T05:41:39;5.43;;;2.30;;
32611;SDS011;19030;49.478;8.986;2022-10-23T05:43:40;4.40;;;2.13;;
32611;SDS011;19030;49.478;8.986;2022-10-23T05:46:10;7.70;;;2.35;;
32611;SDS011;19030;49.478;8.986;2022-10-23T05:48:37;5.90;;;2.30;;
32611;SDS011;19030;49.478;8.986;2022-10-23T05:51:06;6.60;;;2.38;;
32611;SDS011;19030;49.478;8.986;2022-10-23T05:53:28;7.25;;;2.53;;
32611;SDS011;19030;49.478;8.986;2022-10-23T05:55:47;5.28;;;2.47;;
32611;SDS011;19030;49.478;8.986;2022-10-23T05:58:12;5.57;;;2.30;;
32611;SDS011;19030;49.478;8.986;2022-10-23T06:00:31;5.25;;;2.20;;
32611;SDS011;19030;49.478;8.986;2022-10-23T06:02:52;10.20;;;2.40;;
32611;SDS011;19030;49.478;8.986;2022-10-23T06:05:05;4.00;;;2.20;;
32611;SDS011;19030;49.478;8.986;2022-10-23T06:07:25;6.45;;;2.53;;
32611;SDS011;19030;49.478;8.986;2022-10-23T06:09:29;8.10;;;2.35;;
32611;SDS011;19030;49.478;8.986;2022-10-23T06:11:31;2.38;;;1.90;;
32611;SDS011;19030;49.478;8.986;2022-10-23T06:13:37;4.25;;;2.20;;
32611;SDS011;19030;49.478;8.986;2022-10-23T06:15:38;5.60;;;2.10;;
32611;SDS011;19030;49.478;8.986;2022-10-23T06:17:44;3.88;;;2.42;;
32611;SDS011;19030;49.478;8.986;2022-10-23T06:19:44;5.75;;;2.78;;
32611;SDS011;19030;49.478;8.986;2022-10-23T06:21:47;9.50;;;2.53;;
32611;SDS011;19030;49.478;8.986;2022-10-23T06:23:48;9.63;;;3.58;;
32611;SDS011;19030;49.478;8.986;2022-10-23T06:26:02;10.65;;;5.10;;
32611;SDS011;19030;49.478;8.986;2022-10-23T06:28:11;13.00;;;6.00;;
32611;SDS011;19030;49.478;8.986;2022-10-23T06:30:11;11.52;;;4.30;;
32611;SDS011;19030;49.478;8.986;2022-10-23T06:32:13;10.73;;;4.45;;
32611;SDS011;19030;49.478;8.986;2022-10-23T06:34:18;11.68;;;4.90;;
32611;SDS011;19030;49.478;8.986;2022-10-23T06:36:20;8.45;;;4.07;;
32611;SDS011;19030;49.478;8.986;2022-10-23T06:38:21;6.55;;;3.30;;
32611;SDS011;19030;49.478;8.986;2022-10-23T06:40:27;7.93;;;2.97;;
32611;SDS011;19030;49.478;8.986;2022-10-23T06:42:33;17.95;;;2.72;;
32611;SDS011;19030;49.478;8.986;2022-10-23T06:44:54;4.50;;;2.38;;
32611;SDS011;19030;49.478;8.986;2022-10-23T06:47:14;5.20;;;2.63;;
32611;SDS011;19030;49.478;8.986;2022-10-23T06:49:33;8.43;;;2.72;;
32611;SDS011;19030;49.478;8.986;2022-10-23T06:51:35;8.18;;;4.22;;
32611;SDS011;19030;49.478;8.986;2022-10-23T06:53:37;13.02;;;4.15;;
32611;SDS011;19030;49.478;8.986;2022-10-23T06:55:46;8.65;;;4.20;;
32611;SDS011;19030;49.478;8.986;2022-10-23T06:57:47;12.35;;;8.65;;
32611;SDS011;19030;49.478;8.986;2022-10-23T06:59:47;12.32;;;7.50;;
32611;SDS011;19030;49.478;8.986;2022-10-23T07:01:49;6.90;;;2.90;;
32611;SDS011;19030;49.478;8.986;2022-10-23T07:03:50;6.45;;;3.22;;
32611;SDS011;19030;49.478;8.986;2022-10-23T07:06:00;6.40;;;2.70;;
32611;SDS011;19030;49.478;8.986;2022-10-23T07:08:04;5.43;;;2.97;;
32611;SDS011;19030;49.478;8.986;2022-10-23T07:10:12;14.38;;;4.68;;
32611;SDS011;19030;49.478;8.986;2022-10-23T07:12:15;13.68;;;6.35;;
32611;SDS011;19030;49.478;8.986;2022-10-23T07:14:22;9.82;;;5.10;;
32611;SDS011;19030;49.478;8.986;2022-10-23T07:16:23;8.90;;;4.28;;
32611;SDS011;19030;49.478;8.986;2022-10-23T07:18:24;10.52;;;3.17;;
32611;SDS011;19030;49.478;8.986;2022-10-23T07:20:57;5.93;;;2.55;;
32611;SDS011;19030;49.478;8.986;2022-10-23T07:22:58;10.32;;;2.95;;
32611;SDS011;19030;49.478;8.986;2022-10-23T07:25:08;8.80;;;3.40;;
32611;SDS011;19030;49.478;8.986;2022-10-23T07:27:11;5.88;;;3.28;;
32611;SDS011;19030;49.478;8.986;2022-10-23T07:29:12;4.95;;;3.10;;
32611;SDS011;19030;49.478;8.986;2022-10-23T07:31:13;7.80;;;3.17;;
32611;SDS011;19030;49.478;8.986;2022-10-23T07:33:32;8.48;;;3.97;;
32611;SDS011;19030;49.478;8.986;2022-10-23T07:35:41;8.27;;;3.70;;
32611;SDS011;19030;49.478;8.986;2022-10-23T07:37:47;8.82;;;4.03;;
32611;SDS011;19030;49.478;8.986;2022-10-23T07:39:48;10.35;;;4.20;;
32611;SDS011;19030;49.478;8.986;2022-10-23T07:41:50;11.73;;;3.05;;
32611;SDS011;19030;49.478;8.986;2022-10-23T07:43:52;8.95;;;3.55;;
32611;SDS011;19030;49.478;8.986;2022-10-23T07:45:53;9.45;;;3.35;;
32611;SDS011;19030;49.478;8.986;2022-10-23T07:50:08;4.15;;;2.78;;
32611;SDS011;19030;49.478;8.986;2022-10-23T07:52:09;11.32;;;3.35;;
32611;SDS011;19030;49.478;8.986;2022-10-23T07:54:30;5.65;;;2.90;;
32611;SDS011;19030;49.478;8.986;2022-10-23T07:57:09;7.97;;;4.63;;
32611;SDS011;19030;49.478;8.986;2022-10-23T07:59:19;17.40;;;4.20;;
32611;SDS011;19030;49.478;8.986;2022-10-23T08:01:26;7.95;;;3.30;;
32611;SDS011;19030;49.478;8.986;2022-10-23T08:03:37;8.65;;;2.83;;
32611;SDS011;19030;49.478;8.986;2022-10-23T08:05:38;10.20;;;2.90;;
32611;SDS011;19030;49.478;8.986;2022-10-23T08:07:38;7.60;;;2.90;;
32611;SDS011;19030;49.478;8.986;2022-10-23T08:09:39;7.35;;;2.90;;
32611;SDS011;19030;49.478;8.986;2022-10-23T08:11:41;4.53;;;2.72;;
32611;SDS011;19030;49.478;8.986;2022-10-23T08:13:44;7.72;;;2.65;;
32611;SDS011;19030;49.478;8.986;2022-10-23T08:15:46;4.63;;;2.38;;
32611;SDS011;19030;49.478;8.986;2022-10-23T08:18:07;5.63;;;2.38;;
32611;SDS011;19030;49.478;8.986;2022-10-23T08:20:13;9.60;;;3.13;;
32611;SDS011;19030;49.478;8.986;2022-10-23T08:22:16;8.50;;;2.72;;
32611;SDS011;19030;49.478;8.986;2022-10-23T08:24:17;7.05;;;3.00;;
32611;SDS011;19030;49.478;8.986;2022-10-23T08:26:21;7.10;;;2.97;;
32611;SDS011;19030;49.478;8.986;2022-10-23T08:28:23;7.40;;;3.15;;
32611;SDS011;19030;49.478;8.986;2022-10-23T08:30:28;7.97;;;3.25;;
32611;SDS011;19030;49.478;8.986;2022-10-23T08:32:31;7.70;;;2.97;;
32611;SDS011;19030;49.478;8.986;2022-10-23T08:34:33;6.57;;;2.88;;
32611;SDS011;19030;49.478;8.986;2022-10-23T08:36:37;5.90;;;2.72;;
32611;SDS011;19030;49.478;8.986;2022-10-23T08:38:38;4.68;;;2.83;;
32611;SDS011;19030;49.478;8.986;2022-10-23T08:40:45;9.02;;;3.10;;
32611;SDS011;19030;49.478;8.986;2022-10-23T08:45:43;7.82;;;3.35;;
32611;SDS011;19030;49.478;8.986;2022-10-23T08:50:58;7.90;;;4.13;;
32611;SDS011;19030;49.478;8.986;2022-10-23T08:53:21;7.18;;;3.90;;
32611;SDS011;19030;49.478;8.986;2022-10-23T08:55:39;9.35;;;4.05;;
32611;SDS011;19030;49.478;8.986;2022-10-23T08:58:19;7.85;;;4.50;;
32611;SDS011;19030;49.478;8.986;2022-10-23T09:00:24;6.43;;;3.40;;
32611;SDS011;19030;49.478;8.986;2022-10-23T09:02:46;7.80;;;3.28;;
32611;SDS011;19030;49.478;8.986;2022-10-23T09:04:50;9.23;;;3.92;;
32611;SDS011;19030;49.478;8.986;2022-10-23T09:09:15;11.18;;;6.47;;
32611;SDS011;19030;49.478;8.986;2022-10-23T09:13:30;10.82;;;7.50;;
32611;SDS011;19030;49.478;8.986;2022-10-23T09:15:54;11.02;;;5.10;;
32611;SDS011;19030;49.478;8.986;2022-10-23T09:18:13;8.93;;;7.68;;
32611;SDS011;19030;49.478;8.986;2022-10-23T09:22:23;7.97;;;4.97;;
32611;SDS011;19030;49.478;8.986;2022-10-23T09:24:24;6.97;;;5.13;;
32611;SDS011;19030;49.478;8.986;2022-10-23T09:26:25;6.50;;;4.60;;
32611;SDS011;19030;49.478;8.986;2022-10-23T09:28:28;10.80;;;5.32;;
32611;SDS011;19030;49.478;8.986;2022-10-23T09:30:40;8.27;;;5.13;;
32611;SDS011;19030;49.478;8.986;2022-10-23T09:32:41;7.57;;;5.40;;
32611;SDS011;19030;49.478;8.986;2022-10-23T09:34:49;9.90;;;5.25;;
32611;SDS011;19030;49.478;8.986;2022-10-23T09:36:56;8.10;;;5.55;;
32611;SDS011;19030;49.478;8.986;2022-10-23T09:38:58;8.95;;;5.70;;
32611;SDS011;19030;49.478;8.986;2022-10-23T09:41:01;7.85;;;5.75;;
32611;SDS011;19030;49.478;8.986;2022-10-23T09:43:14;9.05;;;5.50;;
32611;SDS011;19030;49.478;8.986;2022-10-23T09:45:30;9.95;;;5.78;;
32611;SDS011;19030;49.478;8.986;2022-10-23T09:47:34;9.23;;;6.38;;
32611;SDS011;19030;49.478;8.986;2022-10-23T09:49:35;6.03;;;5.32;;
32611;SDS011;19030;49.478;8.986;2022-10-23T09:51:39;10.57;;;6.40;;
32611;SDS011;19030;49.478;8.986;2022-10-23T09:53:52;8.15;;;6.07;;
32611;SDS011;19030;49.478;8.986;2022-10-23T09:55:58;7.13;;;5.90;;
32611;SDS011;19030;49.478;8.986;2022-10-23T09:58:04;14.15;;;5.82;;
32611;SDS011;19030;49.478;8.986;2022-10-23T10:02:53;8.63;;;6.10;;
32611;SDS011;19030;49.478;8.986;2022-10-23T10:07:22;12.10;;;6.15;;
32611;SDS011;19030;49.478;8.986;2022-10-23T10:09:25;9.43;;;6.00;;
32611;SDS011;19030;49.478;8.986;2022-10-23T10:14:17;6.90;;;5.85;;
32611;SDS011;19030;49.478;8.986;2022-10-23T10:18:56;7.00;;;5.50;;
32611;SDS011;19030;49.478;8.986;2022-10-23T10:23:46;8.88;;;5.80;;
32611;SDS011;19030;49.478;8.986;2022-10-23T10:30:15;6.25;;;5.50;;
32611;SDS011;19030;49.478;8.986;2022-10-23T10:32:35;8.55;;;5.20;;
32611;SDS011;19030;49.478;8.986;2022-10-23T10:34:59;9.80;;;5.72;;
32611;SDS011;19030;49.478;8.986;2022-10-23T10:39:48;8.15;;;7.13;;
32611;SDS011;19030;49.478;8.986;2022-10-23T10:44:15;5.68;;;5.07;;
32611;SDS011;19030;49.478;8.986;2022-10-23T10:53:42;6.47;;;5.20;;
32611;SDS011;19030;49.478;8.986;2022-10-23T10:55:58;14.25;;;11.68;;
32611;SDS011;19030;49.478;8.986;2022-10-23T11:00:37;11.80;;;5.30;;
32611;SDS011;19030;49.478;8.986;2022-10-23T11:02:39;12.32;;;11.32;;
32611;SDS011;19030;49.478;8.986;2022-10-23T11:04:45;11.80;;;10.70;;
32611;SDS011;19030;49.478;8.986;2022-10-23T11:07:00;11.65;;;10.75;;
32611;SDS011;19030;49.478;8.986;2022-10-23T11:09:24;10.98;;;9.95;;
32611;SDS011;19030;49.478;8.986;2022-10-23T11:11:29;13.30;;;12.20;;
32611;SDS011;19030;49.478;8.986;2022-10-23T11:13:39;11.57;;;10.68;;
32611;SDS011;19030;49.478;8.986;2022-10-23T11:17:44;12.57;;;10.95;;
32611;SDS011;19030;49.478;8.986;2022-10-23T11:19:48;13.88;;;9.60;;
32611;SDS011;19030;49.478;8.986;2022-10-23T11:22:36;12.25;;;10.43;;
32611;SDS011;19030;49.478;8.986;2022-10-23T11:24:51;12.07;;;10.90;;
32611;SDS011;19030;49.478;8.986;2022-10-23T11:31:28;12.05;;;11.05;;
32611;SDS011;19030;49.478;8.986;2022-10-23T11:38:18;5.25;;;3.92;;
32611;SDS011;19030;49.478;8.986;2022-10-23T11:40:24;8.63;;;4.10;;
32611;SDS011;19030;49.478;8.986;2022-10-23T11:44:47;6.97;;;5.32;;
32611;SDS011;19030;49.478;8.986;2022-10-23T11:46:58;6.72;;;4.10;;
32611;SDS011;19030;49.478;8.986;2022-10-23T11:49:01;8.70;;;5.00;;
32611;SDS011;19030;49.478;8.986;2022-10-23T11:51:05;4.10;;;2.72;;
32611;SDS011;19030;49.478;8.986;2022-10-23T11:53:26;4.78;;;4.05;;
32611;SDS011;19030;49.478;8.986;2022-10-23T11:55:30;6.05;;;3.80;;
32611;SDS011;19030;49.478;8.986;2022-10-23T11:57:31;6.13;;;3.80;;
32611;SDS011;19030;49.478;8.986;2022-10-23T11:59:35;8.85;;;5.00;;
32611;SDS011;19030;49.478;8.986;2022-10-23T12:01:46;7.50;;;3.40;;
32611;SDS011;19030;49.478;8.986;2022-10-23T12:03:58;4.90;;;4.20;;
32611;SDS011;19030;49.478;8.986;2022-10-23T12:06:17;5.70;;;3.75;;
32611;SDS011;19030;49.478;8.986;2022-10-23T12:08:22;17.88;;;3.85;;
32611;SDS011;19030;49.478;8.986;2022-10-23T12:10:31;14.10;;;4.85;;
32611;SDS011;19030;49.478;8.986;2022-10-23T12:12:34;18.45;;;4.80;;
32611;SDS011;19030;49.478;8.986;2022-10-23T12:14:45;9.48;;;4.25;;
32611;SDS011;19030;49.478;8.986;2022-10-23T12:16:47;7.25;;;3.92;;
32611;SDS011;19030;49.478;8.986;2022-10-23T12:18:49;10.20;;;7.63;;
32611;SDS011;19030;49.478;8.986;2022-10-23T12:20:54;8.25;;;7.47;;
32611;SDS011;19030;49.478;8.986;2022-10-23T12:25:20;11.95;;;10.75;;
32611;SDS011;19030;49.478;8.986;2022-10-23T12:29:41;6.18;;;4.70;;
32611;SDS011;19030;49.478;8.986;2022-10-23T12:34:24;15.05;;;6.57;;
32611;SDS011;19030;49.478;8.986;2022-10-23T12:38:49;8.43;;;7.20;;
32611;SDS011;19030;49.478;8.986;2022-10-23T12:40:51;9.73;;;7.82;;
32611;SDS011;19030;49.478;8.986;2022-10-23T12:43:00;10.52;;;9.43;;
32611;SDS011;19030;49.478;8.986;2022-10-23T12:47:15;12.10;;;10.82;;
32611;SDS011;19030;49.478;8.986;2022-10-23T12:49:19;20.63;;;12.85;;
32611;SDS011;19030;49.478;8.986;2022-10-23T12:51:29;13.55;;;12.32;;
32611;SDS011;19030;49.478;8.986;2022-10-23T12:53:31;14.60;;;13.27;;
32611;SDS011;19030;49.478;8.986;2022-10-23T12:57:58;14.33;;;12.50;;
32611;SDS011;19030;49.478;8.986;2022-10-23T13:00:06;12.50;;;11.30;;
32611;SDS011;19030;49.478;8.986;2022-10-23T13:02:25;12.65;;;10.57;;
32611;SDS011;19030;49.478;8.986;2022-10-23T13:04:28;13.23;;;10.73;;
32611;SDS011;19030;49.478;8.986;2022-10-23T13:06:33;12.32;;;11.18;;
32611;SDS011;19030;49.478;8.986;2022-10-23T13:08:42;23.63;;;11.77;;
32611;SDS011;19030;49.478;8.986;2022-10-23T13:11:12;12.05;;;10.95;;
32611;SDS011;19030;49.478;8.986;2022-10-23T13:13:20;11.40;;;10.25;;
32611;SDS011;19030;49.478;8.986;2022-10-23T13:15:22;12.63;;;11.43;;
32611;SDS011;19030;49.478;8.986;2022-10-23T13:17:40;13.57;;;10.98;;
32611;SDS011;19030;49.478;8.986;2022-10-23T13:19:42;17.75;;;8.77;;
32611;SDS011;19030;49.478;8.986;2022-10-23T13:21:44;9.93;;;4.60;;
32611;SDS011;19030;49.478;8.986;2022-10-23T13:23:45;11.75;;;4.30;;
32611;SDS011;19030;49.478;8.986;2022-10-23T13:25:53;11.35;;;8.45;;
32611;SDS011;19030;49.478;8.986;2022-10-23T13:30:42;10.38;;;4.55;;
32611;SDS011;19030;49.478;8.986;2022-10-23T13:32:45;10.23;;;4.30;;
32611;SDS011;19030;49.478;8.986;2022-10-23T13:34:52;13.43;;;4.30;;
32611;SDS011;19030;49.478;8.986;2022-10-23T13:37:02;4.70;;;4.20;;
32611;SDS011;19030;49.478;8.986;2022-10-23T13:40:26;5.93;;;4.07;;
32611;SDS011;19030;49.478;8.986;2022-10-23T13:42:22;6.60;;;4.07;;
32611;SDS011;19030;49.478;8.986;2022-10-23T13:44:23;10.48;;;4.43;;
32611;SDS011;19030;49.478;8.986;2022-10-23T13:46:24;10.50;;;4.50;;
32611;SDS011;19030;49.478;8.986;2022-10-23T13:48:24;9.55;;;5.50;;
32611;SDS011;19030;49.478;8.986;2022-10-23T13:50:25;9.85;;;5.40;;
32611;SDS011;19030;49.478;8.986;2022-10-23T13:52:26;7.93;;;4.55;;
32611;SDS011;19030;49.478;8.986;2022-10-23T13:54:27;8.75;;;4.68;;
32611;SDS011;19030;49.478;8.986;2022-10-23T13:56:28;9.60;;;4.80;;
32611;SDS011;19030;49.478;8.986;2022-10-23T13:58:29;7.55;;;4.40;;
32611;SDS011;19030;49.478;8.986;2022-10-23T14:00:29;11.95;;;4.90;;
32611;SDS011;19030;49.478;8.986;2022-10-23T14:02:30;13.18;;;5.30;;
32611;SDS011;19030;49.478;8.986;2022-10-23T14:04:30;10.60;;;4.78;;
32611;SDS011;19030;49.478;8.986;2022-10-23T14:06:31;8.70;;;5.13;;
32611;SDS011;19030;49.478;8.986;2022-10-23T14:08:32;9.20;;;4.80;;
32611;SDS011;19030;49.478;8.986;2022-10-23T14:10:33;7.05;;;4.65;;
32611;SDS011;19030;49.478;8.986;2022-10-23T14:12:37;5.57;;;4.40;;
32611;SDS011;19030;49.478;8.986;2022-10-23T14:14:41;10.23;;;4.60;;
32611;SDS011;19030;49.478;8.986;2022-10-23T14:16:42;16.02;;;5.00;;
32611;SDS011;19030;49.478;8.986;2022-10-23T14:18:43;14.40;;;4.60;;
32611;SDS011;19030;49.478;8.986;2022-10-23T14:20:43;13.73;;;5.40;;